createdAt,value
2019-03-31T00:02:08.681Z,96.20
2019-03-31T00:04:37.460Z,96.00
2019-03-31T00:07:06.398Z,96.00
2019-03-31T00:09:35.276Z,96.20
2019-03-31T00:12:04.085Z,96.10
2019-03-31T00:14:32.794Z,96.30
2019-03-31T00:17:01.630Z,96.00
2019-03-31T00:19:30.396Z,95.60
2019-03-31T00:21:59.255Z,95.60
2019-03-31T00:24:27.996Z,95.70
2019-03-31T00:26:56.653Z,95.70
2019-03-31T00:29:25.442Z,96.00
2019-03-31T00:31:54.220Z,96.30
2019-03-31T00:34:22.966Z,96.50
2019-03-31T00:36:54.007Z,96.70
2019-03-31T00:39:22.677Z,97.00
2019-03-31T00:41:52.538Z,97.20
2019-03-31T00:44:21.310Z,97.40
2019-03-31T00:46:50.282Z,97.60
2019-03-31T00:49:19.087Z,97.80
2019-03-31T00:51:47.774Z,98.00
2019-03-31T00:54:16.537Z,98.20
2019-03-31T00:56:45.290Z,98.40
2019-03-31T00:59:14.220Z,98.40
2019-03-31T01:01:44.947Z,98.40
2019-03-31T01:04:15.672Z,98.40
2019-03-31T01:06:45.468Z,98.10
2019-03-31T01:09:26.680Z,97.60
2019-03-31T01:11:59.048Z,97.50
2019-03-31T01:14:29.824Z,97.40
2019-03-31T01:17:00.618Z,97.30
2019-03-31T01:19:30.068Z,97.50
2019-03-31T01:21:58.811Z,97.50
2019-03-31T01:24:27.809Z,97.60
2019-03-31T01:26:56.614Z,97.80
2019-03-31T01:29:28.516Z,98.20
2019-03-31T01:31:57.476Z,98.20
2019-03-31T01:34:26.234Z,98.10
2019-03-31T01:36:55.132Z,98.10
2019-03-31T01:39:25.075Z,98.20
2019-03-31T01:41:53.727Z,98.70
2019-03-31T01:44:22.552Z,98.30
2019-03-31T01:46:51.261Z,98.20
2019-03-31T01:49:19.951Z,98.00
2019-03-31T01:51:48.651Z,97.80
2019-03-31T01:54:18.128Z,97.80
2019-03-31T01:56:46.795Z,97.80
2019-03-31T01:59:15.828Z,97.80
2019-03-31T02:01:48.490Z,97.80
2019-03-31T02:04:19.862Z,97.90
2019-03-31T02:06:48.610Z,98.10
2019-03-31T02:09:17.284Z,98.30
2019-03-31T02:11:46.056Z,98.30
2019-03-31T02:14:14.858Z,98.50
2019-03-31T02:16:43.478Z,98.40
2019-03-31T02:19:12.162Z,98.20
2019-03-31T02:21:40.971Z,97.90
2019-03-31T02:24:09.657Z,98.10
2019-03-31T02:26:38.421Z,98.00
2019-03-31T02:29:07.118Z,98.00
2019-03-31T02:31:35.813Z,97.90
2019-03-31T02:34:04.613Z,97.70
2019-03-31T02:36:33.161Z,97.70
2019-03-31T02:39:01.904Z,97.60
2019-03-31T02:41:30.859Z,97.70
2019-03-31T02:43:59.703Z,97.80
2019-03-31T02:46:28.395Z,98.00
2019-03-31T02:48:56.950Z,98.00
2019-03-31T02:51:26.155Z,97.70
2019-03-31T02:53:55.033Z,98.30
2019-03-31T02:56:24.453Z,98.50
2019-03-31T02:58:54.962Z,98.60
2019-03-31T03:01:26.197Z,98.90
2019-03-31T03:03:55.881Z,99.30
2019-03-31T03:06:27.593Z,99.00
2019-03-31T03:08:57.061Z,99.00
2019-03-31T03:11:28.535Z,99.00
2019-03-31T03:13:59.159Z,98.70
2019-03-31T03:16:27.853Z,98.40
2019-03-31T03:18:56.956Z,98.30
2019-03-31T03:21:25.696Z,98.00
2019-03-31T03:23:55.527Z,98.00
2019-03-31T03:26:24.262Z,97.70
2019-03-31T03:28:53.342Z,97.90
2019-03-31T03:31:22.006Z,98.00
2019-03-31T03:33:50.942Z,98.20
2019-03-31T03:36:19.663Z,98.30
2019-03-31T03:38:48.484Z,98.30
2019-03-31T03:41:17.448Z,98.30
2019-03-31T03:43:54.945Z,98.00
2019-03-31T03:46:16.814Z,98.10
2019-03-31T03:48:45.450Z,98.00
2019-03-31T03:51:14.225Z,97.80
2019-03-31T03:53:43.151Z,97.90
2019-03-31T03:56:11.891Z,97.90
2019-03-31T03:58:40.767Z,98.00
2019-03-31T04:01:13.914Z,98.20
2019-03-31T04:03:42.844Z,98.20
2019-03-31T04:06:11.509Z,98.10
2019-03-31T04:08:40.249Z,97.70
2019-03-31T04:11:15.155Z,97.60
2019-03-31T04:13:44.095Z,97.30
2019-03-31T04:16:12.772Z,97.20
2019-03-31T04:18:41.570Z,97.20
2019-03-31T04:21:10.302Z,97.30
2019-03-31T04:23:39.088Z,97.50
2019-03-31T04:26:07.762Z,97.40
2019-03-31T04:28:36.583Z,97.30
2019-03-31T04:31:05.445Z,97.10
2019-03-31T04:33:49.743Z,97.00
2019-03-31T04:36:05.030Z,96.90
2019-03-31T04:38:33.881Z,96.80
2019-03-31T04:41:02.625Z,97.00
2019-03-31T04:43:31.464Z,96.90
2019-03-31T04:46:00.162Z,97.00
2019-03-31T04:48:29.039Z,96.90
2019-03-31T04:50:57.743Z,96.80
2019-03-31T04:53:26.375Z,96.50
2019-03-31T04:55:55.253Z,96.60
2019-03-31T04:58:23.950Z,96.30
2019-03-31T05:00:52.591Z,96.30
2019-03-31T05:03:21.355Z,96.10
2019-03-31T05:05:50.085Z,95.90
2019-03-31T05:08:18.685Z,95.80
2019-03-31T05:10:47.411Z,95.60
2019-03-31T05:13:16.164Z,95.40
2019-03-31T05:15:45.046Z,95.30
2019-03-31T05:18:13.773Z,95.10
2019-03-31T05:20:42.493Z,94.40
2019-03-31T05:23:11.466Z,92.70
2019-03-31T05:25:40.043Z,90.80
2019-03-31T05:28:08.768Z,85.70
2019-03-31T05:30:37.368Z,78.20
2019-03-31T05:33:07.618Z,73.20
2019-03-31T05:35:36.291Z,67.80
2019-03-31T05:38:05.095Z,64.20
2019-03-31T05:40:33.914Z,62.80
2019-03-31T05:43:02.617Z,61.90
2019-03-31T05:45:31.389Z,59.90
2019-03-31T05:48:00.001Z,60.40
2019-03-31T05:50:28.683Z,59.10
2019-03-31T05:52:57.439Z,57.10
2019-03-31T05:55:26.232Z,54.10
2019-03-31T05:57:54.838Z,50.30
2019-03-31T06:00:32.878Z,48.20
2019-03-31T06:03:01.469Z,46.70
2019-03-31T06:05:30.222Z,43.80
2019-03-31T06:07:58.884Z,43.10
2019-03-31T06:10:28.135Z,41.40
2019-03-31T06:12:56.970Z,41.30
2019-03-31T06:15:25.718Z,40.40
2019-03-31T06:17:54.610Z,39.20
2019-03-31T06:20:23.334Z,37.80
2019-03-31T06:22:52.001Z,37.60
2019-03-31T06:25:20.623Z,37.90
2019-03-31T06:27:49.421Z,38.50
2019-03-31T06:30:18.129Z,37.70
2019-03-31T06:32:46.930Z,37.40
2019-03-31T06:35:15.700Z,37.40
2019-03-31T06:37:44.404Z,37.70
2019-03-31T06:40:13.218Z,37.40
2019-03-31T06:42:41.926Z,37.20
2019-03-31T06:45:12.156Z,37.80
2019-03-31T06:47:41.019Z,37.10
2019-03-31T06:50:10.393Z,37.20
2019-03-31T06:52:39.086Z,37.70
2019-03-31T06:55:08.724Z,36.90
2019-03-31T06:57:37.386Z,36.40
2019-03-31T07:00:08.088Z,35.90
2019-03-31T07:02:36.870Z,35.70
2019-03-31T07:05:07.432Z,36.40
2019-03-31T07:07:36.307Z,35.40
2019-03-31T07:10:07.521Z,36.10
2019-03-31T07:12:37.811Z,35.60
2019-03-31T07:15:09.784Z,34.70
2019-03-31T07:17:38.664Z,34.70
2019-03-31T07:20:09.206Z,35.00
2019-03-31T07:22:38.122Z,35.50
2019-03-31T07:25:08.586Z,34.60
2019-03-31T07:27:42.504Z,33.60
2019-03-31T07:30:19.583Z,33.80
2019-03-31T07:32:48.362Z,33.60
2019-03-31T07:35:20.589Z,34.50
2019-03-31T07:37:49.398Z,37.10
2019-03-31T07:40:22.599Z,38.30
2019-03-31T07:42:51.659Z,37.60
2019-03-31T07:45:20.426Z,36.20
2019-03-31T07:47:49.624Z,34.40
2019-03-31T07:50:28.267Z,32.40
2019-03-31T07:52:57.811Z,32.70
2019-03-31T07:55:29.734Z,32.10
2019-03-31T07:57:59.996Z,34.10
2019-03-31T08:00:28.725Z,35.50
2019-03-31T08:03:00.119Z,37.10
2019-03-31T08:05:33.359Z,37.90
2019-03-31T08:07:58.331Z,37.50
2019-03-31T08:10:27.094Z,38.70
2019-03-31T08:12:56.087Z,38.90
2019-03-31T08:15:25.104Z,36.80
2019-03-31T08:17:53.876Z,34.80
2019-03-31T08:20:22.688Z,33.30
2019-03-31T08:22:51.371Z,31.60
2019-03-31T08:25:21.965Z,30.60
2019-03-31T08:27:50.621Z,31.60
2019-03-31T08:30:19.772Z,33.80
2019-03-31T08:32:48.667Z,33.70
2019-03-31T08:35:20.135Z,33.60
2019-03-31T08:37:48.781Z,32.10
2019-03-31T08:40:18.174Z,31.60
2019-03-31T08:42:46.948Z,32.30
2019-03-31T08:45:16.163Z,31.50
2019-03-31T08:47:45.032Z,30.70
2019-03-31T08:50:14.159Z,29.70
2019-03-31T08:52:43.030Z,29.70
2019-03-31T08:55:16.080Z,29.50
2019-03-31T08:57:44.886Z,29.50
2019-03-31T09:00:17.027Z,29.10
2019-03-31T09:02:58.741Z,29.20
2019-03-31T09:05:34.574Z,28.80
2019-03-31T09:08:06.591Z,28.70
2019-03-31T09:10:37.975Z,29.60
2019-03-31T09:13:09.529Z,29.90
2019-03-31T09:15:44.576Z,30.30
2019-03-31T09:18:18.028Z,31.10
2019-03-31T09:20:47.162Z,29.90
2019-03-31T09:23:16.979Z,30.00
2019-03-31T09:25:49.872Z,30.10
2019-03-31T09:28:18.752Z,30.30
2019-03-31T09:30:53.791Z,30.90
2019-03-31T09:33:22.850Z,31.70
2019-03-31T09:35:54.740Z,32.90
2019-03-31T09:38:23.422Z,34.00
2019-03-31T09:40:52.133Z,34.10
2019-03-31T09:43:21.109Z,33.50
2019-03-31T09:45:49.828Z,34.20
2019-03-31T09:48:18.618Z,33.80
2019-03-31T09:50:47.391Z,33.40
2019-03-31T09:53:16.132Z,32.90
2019-03-31T09:55:44.809Z,32.10
2019-03-31T09:58:13.583Z,31.30
2019-03-31T10:00:51.010Z,32.20
2019-03-31T10:03:26.043Z,34.30
2019-03-31T10:06:04.434Z,35.60
2019-03-31T10:08:26.950Z,35.60
2019-03-31T10:10:55.699Z,34.80
2019-03-31T10:13:24.511Z,35.00
2019-03-31T10:15:53.368Z,37.10
2019-03-31T10:18:22.404Z,38.20
2019-03-31T10:20:52.802Z,39.80
2019-03-31T10:23:24.423Z,40.30
2019-03-31T10:25:53.099Z,40.90
2019-03-31T10:28:21.703Z,41.90
2019-03-31T10:30:50.598Z,40.70
2019-03-31T10:33:19.294Z,38.70
2019-03-31T10:35:48.336Z,36.50
2019-03-31T10:38:17.201Z,34.60
2019-03-31T10:40:46.123Z,33.50
2019-03-31T10:43:14.736Z,33.80
2019-03-31T10:45:43.527Z,32.70
2019-03-31T10:48:20.310Z,32.90
2019-03-31T10:50:42.555Z,32.80
2019-03-31T10:53:11.289Z,32.30
2019-03-31T10:55:39.917Z,32.00
2019-03-31T10:58:08.787Z,32.10
2019-03-31T11:00:44.174Z,32.50
2019-03-31T11:03:11.317Z,32.10
2019-03-31T11:05:40.044Z,32.70
2019-03-31T11:08:08.902Z,32.40
2019-03-31T11:10:37.715Z,32.20
2019-03-31T11:13:06.666Z,32.30
2019-03-31T11:15:35.425Z,31.90
2019-03-31T11:18:04.803Z,31.50
2019-03-31T11:20:33.498Z,31.50
2019-03-31T11:23:21.796Z,32.50
2019-03-31T11:25:50.709Z,33.20
2019-03-31T11:28:19.488Z,33.60
2019-03-31T11:30:48.141Z,33.60
2019-03-31T11:33:16.901Z,34.70
2019-03-31T11:35:45.754Z,35.20
2019-03-31T11:38:14.336Z,34.00
2019-03-31T11:40:43.091Z,34.30
2019-03-31T11:43:11.927Z,35.20
2019-03-31T11:45:40.839Z,36.60
2019-03-31T11:48:09.625Z,37.90
2019-03-31T11:50:38.303Z,39.90
2019-03-31T11:53:07.145Z,41.90
2019-03-31T11:55:35.760Z,42.10
2019-03-31T11:58:05.016Z,43.20
2019-03-31T12:00:35.547Z,44.70
2019-03-31T12:03:05.288Z,45.10
2019-03-31T12:05:34.035Z,45.90
2019-03-31T12:08:02.791Z,46.50
2019-03-31T12:10:31.512Z,47.30
2019-03-31T12:13:00.244Z,47.90
2019-03-31T12:15:28.857Z,48.20
2019-03-31T12:17:57.612Z,47.80
2019-03-31T12:20:26.469Z,47.60
2019-03-31T12:22:56.937Z,48.60
2019-03-31T12:25:26.846Z,49.00
2019-03-31T12:27:55.477Z,49.20
2019-03-31T12:30:27.911Z,50.00
2019-03-31T12:32:59.919Z,50.30
2019-03-31T12:35:28.693Z,50.70
2019-03-31T12:37:57.456Z,50.00
2019-03-31T12:40:31.341Z,49.50
2019-03-31T12:43:00.216Z,49.60
2019-03-31T12:45:28.790Z,48.50
2019-03-31T12:48:00.875Z,48.20
2019-03-31T12:50:28.032Z,48.70
2019-03-31T12:52:56.938Z,49.00
2019-03-31T12:55:25.726Z,49.50
2019-03-31T12:57:55.362Z,48.30
2019-03-31T13:00:24.110Z,48.40
2019-03-31T13:02:52.920Z,47.60
2019-03-31T13:05:21.642Z,48.10
2019-03-31T13:07:56.711Z,48.70
2019-03-31T13:10:23.015Z,48.50
2019-03-31T13:12:55.877Z,48.80
2019-03-31T13:15:24.046Z,48.20
2019-03-31T13:17:52.873Z,49.00
2019-03-31T13:20:22.007Z,50.40
2019-03-31T13:22:52.515Z,52.30
2019-03-31T13:25:21.258Z,52.30
2019-03-31T13:27:50.250Z,53.30
2019-03-31T13:30:22.439Z,54.20
2019-03-31T13:32:51.455Z,55.00
2019-03-31T13:35:24.322Z,55.30
2019-03-31T13:38:10.473Z,56.20
2019-03-31T13:40:32.371Z,57.20
2019-03-31T13:43:01.619Z,56.30
2019-03-31T13:45:30.586Z,56.30
2019-03-31T13:48:04.104Z,56.60
2019-03-31T13:50:33.030Z,57.30
2019-03-31T13:53:02.174Z,56.60
2019-03-31T13:55:30.820Z,57.50
2019-03-31T13:58:03.602Z,58.70
2019-03-31T14:00:38.911Z,59.00
2019-03-31T14:03:08.515Z,58.90
2019-03-31T14:05:37.433Z,58.40
2019-03-31T14:08:06.573Z,58.30
2019-03-31T14:10:35.467Z,58.30
2019-03-31T14:13:05.069Z,58.60
2019-03-31T14:15:33.889Z,59.30
2019-03-31T14:18:02.689Z,61.00
2019-03-31T14:20:31.551Z,62.00
2019-03-31T14:23:00.414Z,62.60
2019-03-31T14:25:29.373Z,63.40
2019-03-31T14:27:58.020Z,63.60
2019-03-31T14:30:26.684Z,63.80
2019-03-31T14:32:55.486Z,63.60
2019-03-31T14:35:24.404Z,63.30
2019-03-31T14:37:53.188Z,62.60
2019-03-31T14:40:21.915Z,62.30
2019-03-31T14:42:50.653Z,62.30
2019-03-31T14:45:33.255Z,61.90
2019-03-31T14:48:02.188Z,61.80
2019-03-31T14:50:33.260Z,61.60
2019-03-31T14:53:02.070Z,63.40
2019-03-31T14:55:31.096Z,64.70
2019-03-31T14:58:01.466Z,65.30
2019-03-31T15:00:30.203Z,65.70
2019-03-31T15:02:58.914Z,66.30
2019-03-31T15:05:27.726Z,65.70
2019-03-31T15:07:58.444Z,65.50
2019-03-31T15:10:28.484Z,65.50
2019-03-31T15:12:57.549Z,65.50
2019-03-31T15:15:26.420Z,65.60
2019-03-31T15:17:56.636Z,66.60
2019-03-31T15:20:25.861Z,65.70
2019-03-31T15:22:54.652Z,65.40
2019-03-31T15:25:26.454Z,65.30
2019-03-31T15:27:55.216Z,65.70
2019-03-31T15:30:26.815Z,66.20
2019-03-31T15:32:55.398Z,66.60
2019-03-31T15:35:24.516Z,66.80
2019-03-31T15:37:53.478Z,65.70
2019-03-31T15:40:22.253Z,65.80
2019-03-31T15:42:51.133Z,65.90
2019-03-31T15:45:19.738Z,65.80
2019-03-31T15:47:48.720Z,66.10
2019-03-31T15:50:17.861Z,65.10
2019-03-31T15:52:46.603Z,64.40
2019-03-31T15:55:15.484Z,64.00
2019-03-31T15:57:44.313Z,64.40
2019-03-31T16:00:13.927Z,64.60
2019-03-31T16:02:42.722Z,63.70
2019-03-31T16:05:12.851Z,64.10
2019-03-31T16:07:43.519Z,63.80
2019-03-31T16:10:12.445Z,64.00
2019-03-31T16:12:41.260Z,65.50
2019-03-31T16:15:14.147Z,65.40
2019-03-31T16:17:43.033Z,66.20
2019-03-31T16:20:12.090Z,66.70
2019-03-31T16:22:40.989Z,67.20
2019-03-31T16:25:28.662Z,67.60
2019-03-31T16:27:57.096Z,67.40
2019-03-31T16:30:26.004Z,66.80
2019-03-31T16:32:54.834Z,66.70
2019-03-31T16:35:23.866Z,66.60
2019-03-31T16:37:52.662Z,66.80
2019-03-31T16:40:21.616Z,66.70
2019-03-31T16:42:50.434Z,67.30
2019-03-31T16:45:19.153Z,67.60
2019-03-31T16:47:47.937Z,67.70
2019-03-31T16:50:17.157Z,67.10
2019-03-31T16:52:45.811Z,67.30
2019-03-31T16:55:14.714Z,68.00
2019-03-31T16:57:43.929Z,68.30
2019-03-31T17:00:13.613Z,68.50
2019-03-31T17:02:42.248Z,69.10
2019-03-31T17:05:21.652Z,69.40
2019-03-31T17:07:42.044Z,69.40
2019-03-31T17:10:18.699Z,69.20
2019-03-31T17:12:47.510Z,69.60
2019-03-31T17:15:16.421Z,70.10
2019-03-31T17:17:45.092Z,70.30
2019-03-31T17:20:14.481Z,70.30
2019-03-31T17:22:43.175Z,70.80
2019-03-31T17:25:12.356Z,71.00
2019-03-31T17:27:41.437Z,70.80
2019-03-31T17:30:10.884Z,70.50
2019-03-31T17:32:40.046Z,71.10
2019-03-31T17:35:08.905Z,71.40
2019-03-31T17:37:37.670Z,71.10
2019-03-31T17:40:08.316Z,71.10
2019-03-31T17:42:37.080Z,71.10
2019-03-31T17:45:07.359Z,71.70
2019-03-31T17:47:37.926Z,71.50
2019-03-31T17:50:06.933Z,71.50
2019-03-31T17:52:35.903Z,71.40
2019-03-31T17:55:07.627Z,70.90
2019-03-31T17:57:36.460Z,71.00
2019-03-31T18:00:10.101Z,71.60
2019-03-31T18:02:38.881Z,71.70
2019-03-31T18:05:09.199Z,71.30
2019-03-31T18:07:37.813Z,70.90
2019-03-31T18:10:19.975Z,70.70
2019-03-31T18:12:37.888Z,70.30
2019-03-31T18:15:07.358Z,70.70
2019-03-31T18:17:36.070Z,69.80
2019-03-31T18:20:06.389Z,68.90
2019-03-31T18:22:35.149Z,69.30
2019-03-31T18:25:05.097Z,69.30
2019-03-31T18:27:36.911Z,69.40
2019-03-31T18:30:06.884Z,68.30
2019-03-31T18:32:35.684Z,66.00
2019-03-31T18:35:06.327Z,65.50
2019-03-31T18:37:35.008Z,65.60
2019-03-31T18:40:04.996Z,65.20
2019-03-31T18:42:33.989Z,64.90
2019-03-31T18:45:02.685Z,64.90
2019-03-31T18:47:31.286Z,65.20
2019-03-31T18:50:00.051Z,65.40
2019-03-31T18:52:28.893Z,66.00
2019-03-31T18:55:02.288Z,65.60
2019-03-31T18:57:41.617Z,65.80
2019-03-31T19:00:12.627Z,66.40
2019-03-31T19:02:49.260Z,65.40
2019-03-31T19:05:35.793Z,64.80
2019-03-31T19:08:06.336Z,63.10
2019-03-31T19:10:48.856Z,60.80
2019-03-31T19:13:11.563Z,60.20
2019-03-31T19:15:50.710Z,60.10
2019-03-31T19:18:23.780Z,57.40
2019-03-31T19:21:11.726Z,55.40
2019-03-31T19:23:42.461Z,54.20
2019-03-31T19:26:21.777Z,53.40
2019-03-31T19:29:00.999Z,51.70
2019-03-31T19:31:37.594Z,50.30
2019-03-31T19:34:08.002Z,50.20
2019-03-31T19:36:41.338Z,51.00
2019-03-31T19:39:18.298Z,51.20
2019-03-31T19:42:02.964Z,51.00
2019-03-31T19:44:49.598Z,51.00
2019-03-31T19:47:28.739Z,50.00
2019-03-31T19:49:59.284Z,49.10
2019-03-31T19:52:38.689Z,48.70
2019-03-31T19:55:15.173Z,46.90
2019-03-31T19:57:51.066Z,47.50
2019-03-31T20:00:30.405Z,48.40
2019-03-31T20:03:06.540Z,48.50
2019-03-31T20:05:55.144Z,49.00
2019-03-31T20:08:42.306Z,50.00
2019-03-31T20:11:16.325Z,51.30
2019-03-31T20:13:46.663Z,52.50
2019-03-31T20:16:16.942Z,54.10
2019-03-31T20:18:47.217Z,55.80
2019-03-31T20:21:32.746Z,57.70
2019-03-31T20:24:03.003Z,59.30
2019-03-31T20:26:49.766Z,62.30
2019-03-31T20:29:23.084Z,64.60
2019-03-31T20:32:02.250Z,65.90
2019-03-31T20:34:32.702Z,67.30
2019-03-31T20:37:09.373Z,68.40
2019-03-31T20:39:56.411Z,69.30
2019-03-31T20:42:29.823Z,69.80
2019-03-31T20:44:58.496Z,70.30
2019-03-31T20:47:27.264Z,69.90
2019-03-31T20:49:57.564Z,68.40
2019-03-31T20:52:26.322Z,68.50
2019-03-31T20:55:15.574Z,68.40
2019-03-31T20:57:36.459Z,68.40
2019-03-31T21:00:08.034Z,68.90
2019-03-31T21:02:36.738Z,69.00
2019-03-31T21:05:07.808Z,69.10
2019-03-31T21:07:36.679Z,69.40
2019-03-31T21:10:07.335Z,69.10
2019-03-31T21:12:36.103Z,69.70
2019-03-31T21:15:06.999Z,70.10
2019-03-31T21:17:35.825Z,70.40
2019-03-31T21:20:06.022Z,70.20
2019-03-31T21:22:35.418Z,70.00
2019-03-31T21:25:07.882Z,70.40
2019-03-31T21:27:38.421Z,70.20
2019-03-31T21:30:07.840Z,71.10
2019-03-31T21:32:39.648Z,70.90
2019-03-31T21:35:11.765Z,70.90
2019-03-31T21:37:41.977Z,71.10
2019-03-31T21:40:12.642Z,71.50
2019-03-31T21:42:41.345Z,71.90
2019-03-31T21:45:13.822Z,72.00
2019-03-31T21:47:42.872Z,72.00
2019-03-31T21:50:16.583Z,72.10
2019-03-31T21:52:45.291Z,72.50
2019-03-31T21:55:14.336Z,72.50
2019-03-31T21:57:43.740Z,73.10
2019-03-31T22:00:16.367Z,73.60
2019-03-31T22:02:46.764Z,73.70
2019-03-31T22:05:15.642Z,74.00
2019-03-31T22:07:44.741Z,74.30
2019-03-31T22:10:13.933Z,74.80
2019-03-31T22:12:45.682Z,74.60
2019-03-31T22:15:17.670Z,74.70
2019-03-31T22:17:46.753Z,74.60
2019-03-31T22:20:18.139Z,75.30
2019-03-31T22:22:46.854Z,75.80
2019-03-31T22:25:18.779Z,75.80
2019-03-31T22:27:50.167Z,75.90
2019-03-31T22:30:18.868Z,76.10
2019-03-31T22:32:49.117Z,76.20
2019-03-31T22:35:17.776Z,76.60
2019-03-31T22:37:46.518Z,76.80
2019-03-31T22:40:15.252Z,77.10
2019-03-31T22:42:43.894Z,77.10
2019-03-31T22:45:12.718Z,77.00
2019-03-31T22:47:41.545Z,77.30
2019-03-31T22:50:10.498Z,77.70
2019-03-31T22:52:39.189Z,77.80
2019-03-31T22:55:07.850Z,78.00
2019-03-31T22:57:36.714Z,78.30
2019-03-31T23:00:08.576Z,78.70
2019-03-31T23:02:37.242Z,78.20
2019-03-31T23:05:06.027Z,78.50
2019-03-31T23:07:34.734Z,78.40
2019-03-31T23:10:04.274Z,78.10
2019-03-31T23:12:33.022Z,78.20
2019-03-31T23:15:01.708Z,78.70
2019-03-31T23:17:30.467Z,78.70
2019-03-31T23:19:59.113Z,78.90
2019-03-31T23:22:29.403Z,79.00
2019-03-31T23:24:58.101Z,79.20
2019-03-31T23:27:26.739Z,79.80
2019-03-31T23:29:55.392Z,81.00
2019-03-31T23:32:24.083Z,80.60
2019-03-31T23:34:52.919Z,80.60
2019-03-31T23:37:21.645Z,81.00
2019-03-31T23:39:50.243Z,81.50
2019-03-31T23:42:18.943Z,81.50
2019-03-31T23:44:47.879Z,81.90
2019-03-31T23:47:16.881Z,82.20
2019-03-31T23:49:54.017Z,81.80
2019-03-31T23:52:23.030Z,82.10
2019-03-31T23:54:52.914Z,82.10
2019-03-31T23:57:24.533Z,82.40
2019-03-31T23:59:56.969Z,81.90
